Terminal Aerodrome Forecast
Issued by NWS Sterling, VA

Current Version | Previous Version | Graphics & Text | Print | Product List | Glossary On
Versions: 1 2 3 4 5 6 7 8 9 10 11 12 13 14 15 16 17 18 19 20 21 22 23 24 25
000
FTUS41 KLWX 280816 AAA
TAFIAD
TAF AMD
KIAD 280816Z 2808/2912 VRB03KT P6SM OVC250
      TEMPO 2810/2812 4SM BR
     FM281400 VRB05KT P6SM FEW060 SCT120
     FM282200 21005KT P6SM VCTS BKN060CB
     FM290400 VRB03KT P6SM BKN100=

USA.gov is the U.S. government's official web portal to all federal, state and local government web resources and services.